Time;durP1;ratioP1;P1;durP2;ratioP2;P2;SDS_P1;SDS_P2;PMS_P1;PMS_P2;Temp;Humidity;BMP_temperature;BMP_pressure;BME280_temperature;BME280_humidity;BME280_pressure;Samples;Min_cycle;Max_cycle;Signal;HPM_P1;HPM_P2
2022/06/17 00:00:50;;;;;;;;;;;26.30;88.30;;;;;;5010868;28;19963;-70
2022/06/17 00:03:16;;;;;;;;;;;26.30;87.60;;;;;;5009558;28;20389;-69
2022/06/17 00:05:42;;;;;;;;;;;26.30;87.00;;;;;;5012972;28;19913;-70
2022/06/17 00:08:18;;;;;;;;;;;26.30;85.80;;;;;;5013695;28;19914;-69
2022/06/17 00:10:44;;;;;;;;;;;26.40;85.00;;;;;;5012331;28;20023;-70
2022/06/17 00:13:14;;;;;;;;;;;26.40;83.50;;;;;;5010518;28;20390;-69
2022/06/17 00:15:40;;;;;;;;;;;26.40;82.50;;;;;;5010141;28;19910;-70
2022/06/17 00:18:06;;;;;;;;;;;26.40;81.50;;;;;;5011114;28;19935;-70
2022/06/17 00:20:33;;;;;;;;;;;26.50;80.40;;;;;;5013513;28;19909;-70
2022/06/17 00:22:58;;;;;;;;;;;26.40;81.00;;;;;;5011913;28;20005;-70
2022/06/17 00:25:29;;;;;;;;;;;26.50;79.70;;;;;;5012170;28;20000;-70
2022/06/17 00:27:55;;;;;;;;;;;26.50;78.10;;;;;;5014416;28;19961;-70
2022/06/17 00:30:23;;;;;;;;;;;26.50;76.70;;;;;;5013823;28;19918;-69
2022/06/17 00:32:51;;;;;;;;;;;26.60;76.80;;;;;;5013963;28;19910;-69
2022/06/17 00:35:17;;;;;;;;;;;26.60;76.20;;;;;;5013344;28;20100;-70
2022/06/17 00:37:42;;;;;;;;;;;26.70;76.90;;;;;;5014434;28;20286;-69
2022/06/17 00:40:13;;;;;;;;;;;26.70;76.60;;;;;;5013727;28;19916;-69
2022/06/17 00:42:40;;;;;;;;;;;26.70;75.70;;;;;;5013857;28;19936;-69
2022/06/17 00:45:11;;;;;;;;;;;26.70;75.70;;;;;;5013978;28;19917;-69
2022/06/17 00:47:41;;;;;;;;;;;26.70;75.30;;;;;;5012916;28;19963;-69
2022/06/17 00:50:15;;;;;;;;;;;26.70;75.30;;;;;;5014451;28;19916;-69
2022/06/17 00:52:47;;;;;;;;;;;26.70;74.70;;;;;;5013525;28;20317;-69
2022/06/17 00:55:28;;;;;;;;;;;26.70;75.50;;;;;;5013567;28;19916;-69
2022/06/17 00:57:54;;;;;;;;;;;26.80;74.50;;;;;;5013991;28;19952;-69
2022/06/17 01:00:21;;;;;;;;;;;26.80;74.20;;;;;;5013357;28;19956;-69
2022/06/17 01:02:49;;;;;;;;;;;26.90;74.30;;;;;;5013593;28;19959;-69
2022/06/17 01:05:16;;;;;;;;;;;26.90;74.40;;;;;;5012591;28;19917;-69
2022/06/17 01:07:44;;;;;;;;;;;26.90;74.30;;;;;;5012987;28;19943;-69
2022/06/17 01:10:12;;;;;;;;;;;26.90;74.20;;;;;;5007327;28;19915;-69
2022/06/17 01:12:38;;;;;;;;;;;26.90;74.00;;;;;;5013582;28;20405;-69
2022/06/17 01:15:04;;;;;;;;;;;26.90;74.10;;;;;;5012979;28;19909;-69
2022/06/17 01:17:30;;;;;;;;;;;26.90;74.00;;;;;;5012439;28;19918;-69
2022/06/17 01:19:57;;;;;;;;;;;27.00;73.80;;;;;;5014484;28;19909;-69
2022/06/17 01:22:25;;;;;;;;;;;27.00;74.00;;;;;;5012887;28;20322;-69
2022/06/17 01:24:53;;;;;;;;;;;26.90;74.10;;;;;;5013389;28;19933;-69
2022/06/17 01:27:21;;;;;;;;;;;26.90;74.10;;;;;;5013321;28;19909;-69
2022/06/17 01:29:47;;;;;;;;;;;26.90;74.00;;;;;;5013063;28;19909;-69
2022/06/17 01:32:13;;;;;;;;;;;26.90;74.30;;;;;;5012289;28;19933;-69
2022/06/17 01:34:39;;;;;;;;;;;26.80;74.30;;;;;;5012918;28;20304;-69
2022/06/17 01:37:05;;;;;;;;;;;26.80;74.30;;;;;;5013051;28;19914;-69
2022/06/17 01:39:31;;;;;;;;;;;26.80;74.20;;;;;;5013118;28;20441;-69
2022/06/17 01:41:56;;;;;;;;;;;26.80;74.20;;;;;;5013139;28;20091;-69
2022/06/17 01:44:25;;;;;;;;;;;26.80;74.40;;;;;;5011740;28;20374;-69
2022/06/17 01:46:54;;;;;;;;;;;26.80;74.40;;;;;;5013435;28;19917;-69
2022/06/17 01:49:21;;;;;;;;;;;26.70;74.70;;;;;;5012923;28;19925;-69
2022/06/17 01:51:50;;;;;;;;;;;26.70;74.70;;;;;;5012823;28;19932;-69
2022/06/17 01:54:20;;;;;;;;;;;26.70;74.90;;;;;;5012858;28;19909;-69
2022/06/17 01:56:46;;;;;;;;;;;26.70;75.10;;;;;;5011914;28;19910;-69
2022/06/17 01:59:15;;;;;;;;;;;26.60;75.20;;;;;;5014159;28;19905;-69
2022/06/17 02:01:42;;;;;;;;;;;26.60;75.20;;;;;;5010714;28;19939;-69
2022/06/17 02:04:09;;;;;;;;;;;26.60;75.10;;;;;;5013370;28;20004;-69
2022/06/17 02:06:47;;;;;;;;;;;26.70;75.20;;;;;;5012678;28;19917;-69
2022/06/17 02:09:14;;;;;;;;;;;26.60;75.30;;;;;;5012707;28;19941;-69
2022/06/17 02:11:39;;;;;;;;;;;26.60;75.30;;;;;;5011886;28;20004;-69
2022/06/17 02:14:09;;;;;;;;;;;26.60;75.40;;;;;;5012353;28;19996;-69
2022/06/17 02:16:36;;;;;;;;;;;26.60;75.40;;;;;;5012423;28;19924;-69
2022/06/17 02:19:02;;;;;;;;;;;26.50;75.50;;;;;;5007211;28;19955;-69
2022/06/17 02:21:32;;;;;;;;;;;26.50;75.40;;;;;;5012492;28;19920;-69
2022/06/17 02:23:59;;;;;;;;;;;26.50;75.70;;;;;;5012972;28;19917;-69
2022/06/17 02:26:24;;;;;;;;;;;26.50;75.70;;;;;;5013964;28;19909;-69
2022/06/17 02:28:51;;;;;;;;;;;26.50;75.70;;;;;;5016175;28;19924;-69
2022/06/17 02:31:17;;;;;;;;;;;26.50;76.20;;;;;;5016627;28;19909;-69
2022/06/17 02:33:45;;;;;;;;;;;26.50;76.30;;;;;;5016957;28;20381;-69
2022/06/17 02:36:18;;;;;;;;;;;26.40;76.50;;;;;;5016393;28;19999;-69
2022/06/17 02:38:45;;;;;;;;;;;26.40;76.40;;;;;;5016492;28;19912;-69
2022/06/17 02:41:17;;;;;;;;;;;26.40;76.60;;;;;;5015650;28;19905;-69
2022/06/17 02:43:45;;;;;;;;;;;26.30;77.00;;;;;;5016322;28;19909;-69
2022/06/17 02:46:14;;;;;;;;;;;26.30;76.80;;;;;;5016244;28;19955;-69
2022/06/17 02:48:51;;;;;;;;;;;26.30;76.90;;;;;;5016421;28;20305;-69
2022/06/17 02:51:16;;;;;;;;;;;26.30;77.00;;;;;;5016953;28;19920;-69
2022/06/17 02:53:42;;;;;;;;;;;26.30;76.90;;;;;;5015878;28;20286;-69
2022/06/17 02:56:17;;;;;;;;;;;26.30;76.90;;;;;;5015476;28;19988;-69
2022/06/17 02:58:51;;;;;;;;;;;26.30;76.90;;;;;;5015745;28;20008;-69
2022/06/17 03:01:19;;;;;;;;;;;26.30;76.90;;;;;;5016189;28;20060;-69
2022/06/17 03:03:45;;;;;;;;;;;26.30;77.10;;;;;;5016479;28;20043;-69
2022/06/17 03:06:18;;;;;;;;;;;26.20;77.00;;;;;;5015925;28;19992;-69
2022/06/17 03:08:46;;;;;;;;;;;26.20;77.20;;;;;;5015740;28;20285;-69
2022/06/17 03:11:12;;;;;;;;;;;26.20;77.30;;;;;;5028266;28;20122;-69
2022/06/17 03:13:44;;;;;;;;;;;26.20;77.40;;;;;;5015831;28;20043;-69
2022/06/17 03:16:11;;;;;;;;;;;26.20;77.70;;;;;;5015801;28;19913;-69
2022/06/17 03:18:37;;;;;;;;;;;26.20;77.80;;;;;;5016061;28;19915;-69
2022/06/17 03:21:05;;;;;;;;;;;26.10;77.80;;;;;;5015556;28;19999;-69
2022/06/17 03:23:31;;;;;;;;;;;26.10;77.80;;;;;;5014450;28;20393;-69
2022/06/17 03:26:00;;;;;;;;;;;26.10;78.20;;;;;;5015524;28;19906;-69
2022/06/17 03:28:28;;;;;;;;;;;26.00;78.10;;;;;;5015434;28;19924;-69
2022/06/17 03:30:58;;;;;;;;;;;26.00;78.40;;;;;;5015458;28;20255;-69
2022/06/17 03:33:32;;;;;;;;;;;26.00;78.40;;;;;;5015532;28;19937;-69
2022/06/17 03:35:59;;;;;;;;;;;26.00;78.60;;;;;;5015559;28;19924;-69
2022/06/17 03:38:28;;;;;;;;;;;26.00;78.50;;;;;;5013263;28;19909;-69
2022/06/17 03:40:58;;;;;;;;;;;26.00;78.80;;;;;;5015278;28;20425;-69
2022/06/17 03:43:25;;;;;;;;;;;26.00;79.00;;;;;;5015091;28;20028;-69
2022/06/17 03:45:58;;;;;;;;;;;25.90;78.80;;;;;;5015483;28;19910;-69
2022/06/17 03:48:26;;;;;;;;;;;25.90;78.80;;;;;;5015000;28;20413;-69
2022/06/17 03:50:51;;;;;;;;;;;25.90;78.80;;;;;;5015377;28;19924;-69
2022/06/17 03:53:23;;;;;;;;;;;25.90;79.10;;;;;;5014313;28;19905;-69
2022/06/17 03:55:49;;;;;;;;;;;25.90;79.10;;;;;;5014630;28;20354;-68
2022/06/17 03:58:16;;;;;;;;;;;25.90;79.10;;;;;;5014760;28;19913;-69
2022/06/17 04:00:53;;;;;;;;;;;25.90;79.10;;;;;;5014640;28;19909;-69
2022/06/17 04:03:21;;;;;;;;;;;25.90;79.10;;;;;;5014640;28;20329;-69
2022/06/17 04:05:50;;;;;;;;;;;25.90;79.40;;;;;;5014819;28;20016;-69
2022/06/17 04:08:15;;;;;;;;;;;25.90;79.20;;;;;;5014234;28;19959;-69
2022/06/17 04:10:41;;;;;;;;;;;25.90;79.90;;;;;;5014443;28;19944;-69
2022/06/17 04:13:10;;;;;;;;;;;25.90;79.20;;;;;;5014761;28;19909;-69
2022/06/17 04:15:56;;;;;;;;;;;25.90;79.30;;;;;;5015003;28;19963;-69
2022/06/17 04:18:21;;;;;;;;;;;25.90;79.30;;;;;;5014784;28;20389;-69
2022/06/17 04:20:52;;;;;;;;;;;25.90;79.50;;;;;;5013882;28;19905;-69
2022/06/17 04:23:28;;;;;;;;;;;25.90;79.40;;;;;;5013592;28;19917;-69
2022/06/17 04:26:02;;;;;;;;;;;25.90;79.10;;;;;;5012973;28;19959;-69
2022/06/17 04:28:33;;;;;;;;;;;25.90;79.10;;;;;;5014407;28;19924;-69
2022/06/17 04:31:00;;;;;;;;;;;25.90;79.40;;;;;;5014651;28;20004;-69
2022/06/17 04:33:36;;;;;;;;;;;25.90;78.90;;;;;;5014517;28;19909;-69
2022/06/17 04:36:23;;;;;;;;;;;25.90;78.90;;;;;;4998939;28;20361;-69
2022/06/17 04:38:54;;;;;;;;;;;25.90;79.60;;;;;;5013930;28;19905;-69
2022/06/17 04:41:20;;;;;;;;;;;25.90;79.10;;;;;;5013492;28;19960;-69
2022/06/17 04:43:47;;;;;;;;;;;25.90;79.10;;;;;;5014107;28;19915;-69
2022/06/17 04:46:15;;;;;;;;;;;25.90;79.10;;;;;;5013916;28;19909;-69
2022/06/17 04:48:41;;;;;;;;;;;25.90;79.20;;;;;;5013669;28;20007;-69
2022/06/17 04:51:08;;;;;;;;;;;25.90;79.20;;;;;;5014136;28;20454;-70
2022/06/17 04:53:35;;;;;;;;;;;25.90;79.30;;;;;;5012879;28;19912;-69
2022/06/17 04:56:02;;;;;;;;;;;25.90;79.10;;;;;;5013916;28;19905;-69
2022/06/17 04:58:28;;;;;;;;;;;25.90;79.10;;;;;;5013806;28;20293;-69
2022/06/17 05:00:55;;;;;;;;;;;25.90;79.00;;;;;;5013617;28;19909;-69
2022/06/17 05:03:23;;;;;;;;;;;25.90;79.10;;;;;;5013995;28;20039;-69
2022/06/17 05:05:48;;;;;;;;;;;25.90;79.30;;;;;;5013664;28;20440;-69
2022/06/17 05:08:14;;;;;;;;;;;25.90;79.30;;;;;;5012546;28;20020;-68
2022/06/17 05:10:41;;;;;;;;;;;25.90;79.40;;;;;;5013999;28;20003;-69
2022/06/17 05:13:12;;;;;;;;;;;25.90;79.10;;;;;;5013652;28;19909;-69
2022/06/17 05:15:38;;;;;;;;;;;25.90;79.20;;;;;;5013354;28;20416;-69
2022/06/17 05:18:03;;;;;;;;;;;25.90;79.40;;;;;;5013924;28;19908;-69
2022/06/17 05:20:29;;;;;;;;;;;26.00;79.50;;;;;;5012842;28;19916;-71
2022/06/17 05:23:01;;;;;;;;;;;26.00;79.50;;;;;;5013247;28;19921;-72
2022/06/17 05:25:34;;;;;;;;;;;26.00;79.40;;;;;;5013239;28;19916;-72
2022/06/17 05:28:00;;;;;;;;;;;26.00;79.50;;;;;;5012426;28;19918;-72
2022/06/17 05:30:26;;;;;;;;;;;26.00;79.20;;;;;;5012093;28;19910;-73
2022/06/17 05:32:54;;;;;;;;;;;26.10;79.40;;;;;;5011390;28;19917;-73
2022/06/17 05:35:20;;;;;;;;;;;26.10;79.10;;;;;;5011398;28;19913;-72
2022/06/17 05:37:46;;;;;;;;;;;26.20;79.30;;;;;;5012266;28;19972;-72
2022/06/17 05:40:12;;;;;;;;;;;26.20;79.10;;;;;;5011962;28;19909;-70
2022/06/17 05:42:38;;;;;;;;;;;26.20;78.80;;;;;;5012317;28;20362;-72
2022/06/17 05:45:04;;;;;;;;;;;26.20;79.00;;;;;;5007543;28;19956;-71
2022/06/17 05:47:30;;;;;;;;;;;26.20;79.00;;;;;;5009174;28;19929;-72
2022/06/17 05:49:55;;;;;;;;;;;26.30;78.70;;;;;;5012870;28;19916;-73
2022/06/17 05:52:21;;;;;;;;;;;26.30;79.00;;;;;;5012240;28;20286;-72
2022/06/17 05:54:47;;;;;;;;;;;26.30;79.00;;;;;;5011843;28;19910;-71
2022/06/17 05:57:12;;;;;;;;;;;26.40;78.90;;;;;;5003205;28;19909;-71
2022/06/17 05:59:38;;;;;;;;;;;26.40;78.80;;;;;;5010509;28;19928;-71
2022/06/17 06:02:04;;;;;;;;;;;26.40;78.50;;;;;;5015502;28;19916;-72
2022/06/17 06:04:31;;;;;;;;;;;26.40;78.40;;;;;;5008732;28;19920;-72
2022/06/17 06:06:57;;;;;;;;;;;26.50;78.70;;;;;;5016577;28;20000;-72
2022/06/17 06:09:22;;;;;;;;;;;26.50;78.10;;;;;;5016755;28;20493;-72
2022/06/17 06:11:48;;;;;;;;;;;26.50;77.50;;;;;;5017249;28;19912;-74
2022/06/17 06:14:13;;;;;;;;;;;26.50;77.60;;;;;;5016161;28;19995;-74
2022/06/17 06:16:39;;;;;;;;;;;26.50;77.80;;;;;;5016795;28;20011;-73
2022/06/17 06:19:05;;;;;;;;;;;26.60;77.20;;;;;;5015767;28;19913;-74
2022/06/17 06:21:30;;;;;;;;;;;26.60;77.40;;;;;;5017028;28;20212;-74
2022/06/17 06:23:56;;;;;;;;;;;26.70;76.60;;;;;;5016402;28;20048;-73
2022/06/17 06:26:22;;;;;;;;;;;26.80;76.30;;;;;;5016277;28;20012;-75
2022/06/17 06:28:47;;;;;;;;;;;26.80;75.80;;;;;;5016269;28;19967;-74
2022/06/17 06:31:16;;;;;;;;;;;26.80;75.80;;;;;;5017289;28;19913;-76
2022/06/17 06:33:42;;;;;;;;;;;27.00;75.00;;;;;;5016344;28;20000;-75
2022/06/17 06:36:07;;;;;;;;;;;27.10;74.70;;;;;;5016428;28;19924;-75
2022/06/17 06:38:33;;;;;;;;;;;27.10;75.00;;;;;;5015334;28;20304;-76
2022/06/17 06:40:59;;;;;;;;;;;27.00;74.50;;;;;;5018437;28;20001;-76
2022/06/17 06:43:24;;;;;;;;;;;27.10;74.70;;;;;;5015328;28;19968;-73
2022/06/17 06:45:52;;;;;;;;;;;27.10;74.20;;;;;;5015958;28;19909;-73
2022/06/17 06:48:19;;;;;;;;;;;27.30;73.70;;;;;;5016352;28;20319;-73
2022/06/17 06:50:45;;;;;;;;;;;27.30;73.60;;;;;;5016158;28;19910;-72
2022/06/17 06:53:11;;;;;;;;;;;27.30;73.40;;;;;;5015554;28;19913;-73
2022/06/17 06:55:37;;;;;;;;;;;27.40;73.60;;;;;;5016136;28;19917;-73
2022/06/17 06:58:05;;;;;;;;;;;27.40;73.40;;;;;;5015883;28;19914;-73
2022/06/17 07:00:36;;;;;;;;;;;27.50;72.50;;;;;;5013585;28;19910;-73
2022/06/17 07:03:02;;;;;;;;;;;27.50;72.70;;;;;;4995971;28;19913;-73
2022/06/17 07:05:28;;;;;;;;;;;27.50;73.20;;;;;;5011311;28;19975;-73
2022/06/17 07:07:54;;;;;;;;;;;27.70;72.20;;;;;;5012280;28;19917;-73
2022/06/17 07:10:25;;;;;;;;;;;27.80;71.30;;;;;;5011940;28;20457;-73
2022/06/17 07:12:51;;;;;;;;;;;27.80;71.30;;;;;;5011173;28;19990;-73
2022/06/17 07:15:18;;;;;;;;;;;28.00;70.50;;;;;;5011462;28;19909;-73
2022/06/17 07:17:54;;;;;;;;;;;27.90;70.90;;;;;;5011245;28;19906;-73
2022/06/17 07:20:20;;;;;;;;;;;27.90;70.70;;;;;;5009416;28;19909;-74
2022/06/17 07:22:46;;;;;;;;;;;28.00;70.90;;;;;;5011701;28;19924;-73
2022/06/17 07:25:11;;;;;;;;;;;28.00;70.20;;;;;;5011491;28;20325;-72
2022/06/17 07:27:37;;;;;;;;;;;28.20;69.70;;;;;;5011648;28;20025;-73
2022/06/17 07:30:03;;;;;;;;;;;28.20;69.60;;;;;;5011572;28;19909;-74
2022/06/17 07:32:28;;;;;;;;;;;28.20;68.70;;;;;;5022167;28;19909;-74
2022/06/17 07:34:54;;;;;;;;;;;28.40;68.80;;;;;;5011115;28;20492;-73
2022/06/17 07:40:04;;;;;;;;;;;28.50;68.30;;;;;;5011365;28;20317;-73
2022/06/17 07:42:39;;;;;;;;;;;28.50;68.70;;;;;;5011365;28;19917;-73
2022/06/17 07:45:06;;;;;;;;;;;28.60;67.60;;;;;;4995874;28;19917;-73
2022/06/17 07:47:32;;;;;;;;;;;28.60;67.50;;;;;;5010651;28;19952;-73
2022/06/17 07:49:58;;;;;;;;;;;28.70;66.60;;;;;;5015297;28;19909;-73
2022/06/17 07:52:23;;;;;;;;;;;29.00;66.80;;;;;;5015069;28;19979;-73
2022/06/17 07:54:49;;;;;;;;;;;28.70;67.00;;;;;;5014941;28;19910;-72
2022/06/17 07:57:16;;;;;;;;;;;28.90;66.20;;;;;;5014892;28;20277;-72
2022/06/17 07:59:42;;;;;;;;;;;28.90;66.40;;;;;;5014249;28;20005;-73
2022/06/17 08:02:08;;;;;;;;;;;28.90;65.90;;;;;;5014940;28;20000;-73
2022/06/17 08:04:34;;;;;;;;;;;28.90;66.00;;;;;;5015292;28;20366;-73
2022/06/17 08:07:00;;;;;;;;;;;28.90;66.30;;;;;;5015160;28;19920;-73
2022/06/17 08:09:26;;;;;;;;;;;28.90;66.80;;;;;;5014295;28;19917;-73
2022/06/17 08:11:51;;;;;;;;;;;29.00;66.20;;;;;;5014741;28;19913;-73
2022/06/17 08:14:17;;;;;;;;;;;29.10;65.30;;;;;;5013944;28;19955;-73
2022/06/17 08:16:43;;;;;;;;;;;29.10;65.30;;;;;;5014153;28;20377;-73
2022/06/17 08:19:09;;;;;;;;;;;29.10;65.30;;;;;;5014920;28;19956;-73
2022/06/17 08:21:35;;;;;;;;;;;29.10;65.60;;;;;;5015042;28;19927;-73
2022/06/17 08:24:00;;;;;;;;;;;29.10;65.80;;;;;;5008235;28;20414;-73
2022/06/17 08:26:26;;;;;;;;;;;29.30;64.70;;;;;;5009605;28;20362;-73
2022/06/17 08:28:52;;;;;;;;;;;29.20;64.70;;;;;;5008325;28;19929;-73
2022/06/17 08:31:18;;;;;;;;;;;29.30;64.60;;;;;;5007034;28;19914;-73
2022/06/17 08:33:43;;;;;;;;;;;29.40;64.40;;;;;;5007209;28;19988;-73
2022/06/17 08:36:14;;;;;;;;;;;29.60;63.00;;;;;;5007079;28;19913;-73
2022/06/17 08:38:44;;;;;;;;;;;29.70;63.10;;;;;;5009470;28;20293;-73
2022/06/17 08:41:24;;;;;;;;;;;29.60;63.10;;;;;;5008043;28;19912;-73
2022/06/17 08:43:57;;;;;;;;;;;29.70;62.80;;;;;;5007130;28;19997;-73
2022/06/17 08:46:29;;;;;;;;;;;29.70;63.60;;;;;;5006295;28;19913;-73
2022/06/17 08:48:54;;;;;;;;;;;29.70;62.60;;;;;;5006952;28;20019;-73
2022/06/17 08:51:35;;;;;;;;;;;29.90;63.00;;;;;;5007252;28;20008;-73
2022/06/17 08:54:15;;;;;;;;;;;29.90;62.40;;;;;;5007360;28;19979;-73
2022/06/17 08:56:46;;;;;;;;;;;30.10;62.30;;;;;;5006391;28;19912;-73
2022/06/17 08:59:15;;;;;;;;;;;30.00;62.20;;;;;;5007261;28;19990;-74
2022/06/17 09:01:46;;;;;;;;;;;29.90;63.10;;;;;;5006617;28;20432;-74
2022/06/17 09:04:44;;;;;;;;;;;30.00;62.90;;;;;;5007107;28;20393;-74
2022/06/17 09:07:16;;;;;;;;;;;30.20;62.50;;;;;;4968858;28;19956;-74
2022/06/17 09:09:42;;;;;;;;;;;30.10;62.20;;;;;;4968755;28;19922;-74
2022/06/17 09:12:11;;;;;;;;;;;30.20;62.40;;;;;;4967308;28;19918;-74
2022/06/17 09:14:55;;;;;;;;;;;30.20;62.60;;;;;;4967601;28;20310;-74
2022/06/17 09:17:27;;;;;;;;;;;30.20;62.60;;;;;;4971099;28;19913;-74
2022/06/17 09:19:55;;;;;;;;;;;30.40;62.50;;;;;;4968019;28;19910;-74
2022/06/17 09:22:41;;;;;;;;;;;30.50;61.80;;;;;;4970547;28;19922;-74
2022/06/17 09:25:08;;;;;;;;;;;30.50;60.60;;;;;;4970238;28;19953;-74
2022/06/17 09:27:43;;;;;;;;;;;30.50;61.10;;;;;;4970802;28;20318;-74
2022/06/17 09:30:15;;;;;;;;;;;30.60;61.20;;;;;;4971687;28;19929;-75
2022/06/17 09:32:52;;;;;;;;;;;30.60;61.20;;;;;;4984231;28;19906;-74
2022/06/17 09:35:23;;;;;;;;;;;30.70;61.20;;;;;;4969338;28;20045;-74
2022/06/17 09:37:58;;;;;;;;;;;30.90;60.40;;;;;;4970910;28;19953;-74
2022/06/17 09:40:24;;;;;;;;;;;30.80;60.10;;;;;;4970481;28;19913;-74
2022/06/17 09:42:54;;;;;;;;;;;30.80;60.00;;;;;;4988266;28;20341;-74
2022/06/17 09:45:28;;;;;;;;;;;31.00;59.50;;;;;;5009047;28;20289;-75
2022/06/17 09:48:04;;;;;;;;;;;31.20;59.10;;;;;;5010749;28;20411;-74
2022/06/17 09:50:36;;;;;;;;;;;31.10;59.50;;;;;;5012048;28;19906;-74
2022/06/17 09:53:12;;;;;;;;;;;31.10;58.90;;;;;;5009108;28;19949;-75
2022/06/17 09:55:41;;;;;;;;;;;31.20;59.00;;;;;;5008628;28;19909;-74
2022/06/17 09:58:15;;;;;;;;;;;31.30;59.00;;;;;;5012557;28;19909;-74
2022/06/17 10:00:59;;;;;;;;;;;31.40;58.40;;;;;;5012919;28;19909;-74
2022/06/17 10:03:32;;;;;;;;;;;31.50;58.10;;;;;;5012973;28;19913;-75
2022/06/17 10:06:24;;;;;;;;;;;31.60;57.80;;;;;;5012747;28;19920;-74
2022/06/17 10:09:01;;;;;;;;;;;31.60;58.60;;;;;;4968700;28;19962;-74
2022/06/17 10:11:27;;;;;;;;;;;31.60;58.40;;;;;;4970428;28;20445;-74
2022/06/17 10:14:01;;;;;;;;;;;31.60;58.40;;;;;;4970013;28;19945;-74
2022/06/17 10:19:45;;;;;;;;;;;31.80;57.10;;;;;;4969914;28;19924;-74
2022/06/17 10:22:18;;;;;;;;;;;31.70;58.00;;;;;;4970527;28;19925;-74
2022/06/17 10:25:02;;;;;;;;;;;32.00;56.90;;;;;;4970117;28;19921;-74
2022/06/17 10:28:00;;;;;;;;;;;32.10;57.00;;;;;;4969706;28;20375;-74
2022/06/17 10:30:35;;;;;;;;;;;32.10;57.00;;;;;;4938296;29;19918;-74
2022/06/17 10:33:01;;;;;;;;;;;32.10;57.30;;;;;;4950462;29;19992;-75
2022/06/17 10:35:29;;;;;;;;;;;32.20;55.80;;;;;;4951143;29;20450;-74
2022/06/17 10:37:56;;;;;;;;;;;32.30;55.60;;;;;;4950943;29;19915;-74
2022/06/17 10:40:24;;;;;;;;;;;32.40;56.60;;;;;;4949979;29;19964;-76
2022/06/17 10:42:51;;;;;;;;;;;32.30;56.10;;;;;;4950524;29;19941;-74
2022/06/17 10:45:17;;;;;;;;;;;32.20;56.50;;;;;;4947898;29;19965;-74
2022/06/17 10:48:15;;;;;;;;;;;32.20;56.60;;;;;;4952225;28;19973;-74
2022/06/17 10:50:41;;;;;;;;;;;32.30;56.60;;;;;;4934842;29;20359;-74
2022/06/17 10:53:06;;;;;;;;;;;32.40;55.50;;;;;;4933470;29;20239;-74
2022/06/17 10:55:53;;;;;;;;;;;32.40;55.10;;;;;;4931859;29;20033;-75
2022/06/17 10:58:20;;;;;;;;;;;32.40;55.10;;;;;;4930210;29;20042;-74
2022/06/17 11:00:55;;;;;;;;;;;32.60;54.80;;;;;;4923318;29;19964;-79
2022/06/17 11:03:21;;;;;;;;;;;32.70;54.60;;;;;;4932317;29;20015;-74
2022/06/17 11:05:52;;;;;;;;;;;32.50;54.60;;;;;;4942230;29;20427;-73
2022/06/17 11:08:20;;;;;;;;;;;32.60;53.90;;;;;;4953540;29;20221;-73
2022/06/17 11:10:50;;;;;;;;;;;32.60;54.10;;;;;;4951151;29;19953;-73
2022/06/17 11:13:16;;;;;;;;;;;32.70;54.40;;;;;;4951647;29;20036;-73
2022/06/17 11:15:46;;;;;;;;;;;32.80;54.00;;;;;;4951343;29;19993;-74
2022/06/17 11:18:17;;;;;;;;;;;33.20;53.90;;;;;;4951773;29;19966;-73
2022/06/17 11:20:53;;;;;;;;;;;33.00;54.00;;;;;;4953578;29;19906;-74
2022/06/17 11:23:24;;;;;;;;;;;33.00;51.70;;;;;;4952804;29;19954;-74
2022/06/17 11:25:55;;;;;;;;;;;33.20;51.50;;;;;;4965090;28;19916;-74
2022/06/17 11:28:25;;;;;;;;;;;33.10;51.40;;;;;;5010272;28;19956;-73
2022/06/17 11:30:52;;;;;;;;;;;33.20;50.70;;;;;;5015725;28;20309;-74
2022/06/17 11:33:23;;;;;;;;;;;33.20;51.60;;;;;;5015783;28;19956;-73
2022/06/17 11:35:56;;;;;;;;;;;33.00;52.30;;;;;;5015877;28;20297;-74
2022/06/17 11:38:24;;;;;;;;;;;33.10;52.70;;;;;;5013428;28;19905;-76
2022/06/17 11:40:55;;;;;;;;;;;33.30;52.60;;;;;;5015446;28;19944;-74
2022/06/17 11:43:34;;;;;;;;;;;33.20;51.90;;;;;;5015969;28;19909;-74
2022/06/17 11:46:07;;;;;;;;;;;33.40;52.30;;;;;;5015567;28;19964;-74
2022/06/17 11:48:35;;;;;;;;;;;33.40;51.80;;;;;;5015360;28;19917;-74
2022/06/17 11:51:06;;;;;;;;;;;33.60;50.90;;;;;;5015427;28;19964;-74
2022/06/17 11:53:40;;;;;;;;;;;33.50;51.00;;;;;;5010210;28;19905;-74
2022/06/17 11:56:07;;;;;;;;;;;33.50;51.30;;;;;;5015057;28;19916;-73
2022/06/17 11:58:33;;;;;;;;;;;33.50;51.50;;;;;;5013567;28;19909;-74
2022/06/17 12:01:10;;;;;;;;;;;33.40;50.90;;;;;;5015081;28;19912;-74
2022/06/17 12:03:40;;;;;;;;;;;33.70;50.40;;;;;;5013273;28;19916;-74
2022/06/17 12:06:17;;;;;;;;;;;33.90;50.60;;;;;;4999469;28;19905;-74
2022/06/17 12:08:55;;;;;;;;;;;33.80;49.90;;;;;;5013654;28;19917;-74
2022/06/17 12:11:27;;;;;;;;;;;33.60;49.70;;;;;;5012555;28;19909;-74
2022/06/17 12:13:56;;;;;;;;;;;33.60;50.90;;;;;;5015126;28;19909;-74
2022/06/17 12:16:42;;;;;;;;;;;33.50;50.70;;;;;;5014358;28;19914;-74
2022/06/17 12:19:10;;;;;;;;;;;33.70;50.80;;;;;;5014279;28;19909;-74
2022/06/17 12:21:45;;;;;;;;;;;33.90;49.40;;;;;;5014367;28;19933;-74
2022/06/17 12:24:15;;;;;;;;;;;34.00;49.50;;;;;;4999967;28;19942;-74
2022/06/17 12:26:48;;;;;;;;;;;34.00;50.00;;;;;;5011082;28;20370;-74
2022/06/17 12:29:34;;;;;;;;;;;34.00;49.80;;;;;;5011745;28;20314;-75
2022/06/17 12:32:03;;;;;;;;;;;33.90;49.70;;;;;;4939013;29;19915;-74
2022/06/17 12:34:45;;;;;;;;;;;34.00;49.30;;;;;;4944086;29;19993;-74
2022/06/17 12:37:13;;;;;;;;;;;33.80;49.40;;;;;;4947566;29;19914;-76
2022/06/17 12:39:49;;;;;;;;;;;33.70;50.40;;;;;;4928591;29;20451;-74
2022/06/17 12:42:24;;;;;;;;;;;34.00;50.00;;;;;;4947934;29;19949;-74
2022/06/17 12:44:59;;;;;;;;;;;34.20;50.20;;;;;;4947040;29;19950;-74
2022/06/17 12:47:30;;;;;;;;;;;34.10;51.60;;;;;;4949429;28;19915;-74
2022/06/17 12:53:14;;;;;;;;;;;34.40;49.70;;;;;;4947141;28;20406;-74
2022/06/17 12:55:46;;;;;;;;;;;34.40;48.60;;;;;;4947785;29;19962;-74
2022/06/17 12:58:30;;;;;;;;;;;34.10;48.60;;;;;;4948151;29;19992;-74
2022/06/17 13:00:58;;;;;;;;;;;33.90;49.10;;;;;;4947303;29;20290;-74
2022/06/17 13:03:27;;;;;;;;;;;34.00;48.50;;;;;;4947912;29;19906;-74
2022/06/17 13:05:54;;;;;;;;;;;34.00;47.10;;;;;;4947639;28;19910;-74
2022/06/17 13:08:26;;;;;;;;;;;34.20;47.90;;;;;;4958106;28;19929;-75
2022/06/17 13:10:51;;;;;;;;;;;34.20;48.20;;;;;;5006617;28;19909;-74
2022/06/17 13:13:20;;;;;;;;;;;34.10;48.10;;;;;;5006385;28;19963;-74
2022/06/17 13:15:52;;;;;;;;;;;34.20;47.50;;;;;;5006558;28;20461;-74
2022/06/17 13:18:22;;;;;;;;;;;34.60;48.20;;;;;;5006755;28;20303;-74
2022/06/17 13:20:56;;;;;;;;;;;34.40;48.60;;;;;;5008809;28;19909;-74
2022/06/17 13:23:40;;;;;;;;;;;34.60;47.60;;;;;;5009222;28;19924;-75
2022/06/17 13:26:08;;;;;;;;;;;35.10;46.70;;;;;;5007051;28;19997;-74
2022/06/17 13:28:43;;;;;;;;;;;34.80;51.30;;;;;;5006465;28;19917;-74
2022/06/17 13:31:11;;;;;;;;;;;35.20;53.70;;;;;;5006506;28;20349;-74
2022/06/17 13:33:42;;;;;;;;;;;35.30;54.00;;;;;;5005816;28;19910;-74
2022/06/17 13:36:13;;;;;;;;;;;35.10;53.80;;;;;;4989127;28;19910;-74
2022/06/17 13:38:38;;;;;;;;;;;35.10;55.20;;;;;;5008856;28;19909;-74
2022/06/17 13:41:14;;;;;;;;;;;35.10;56.10;;;;;;5006717;28;19909;-74
2022/06/17 13:43:53;;;;;;;;;;;35.00;56.50;;;;;;5005159;28;20298;-75
2022/06/17 13:46:26;;;;;;;;;;;35.00;56.80;;;;;;5006050;28;19932;-75
2022/06/17 13:48:59;;;;;;;;;;;34.70;57.70;;;;;;5005639;28;19917;-75
2022/06/17 13:51:51;;;;;;;;;;;34.90;55.80;;;;;;5006094;28;19916;-74
2022/06/17 13:54:35;;;;;;;;;;;34.90;55.30;;;;;;4990751;28;19917;-74
2022/06/17 13:57:06;;;;;;;;;;;34.90;55.30;;;;;;5006528;28;19920;-74
2022/06/17 13:59:38;;;;;;;;;;;34.90;55.60;;;;;;5005077;28;19996;-75
2022/06/17 14:02:09;;;;;;;;;;;34.90;55.50;;;;;;5006557;28;19944;-74
2022/06/17 14:04:54;;;;;;;;;;;34.90;53.90;;;;;;5005646;28;20350;-74
2022/06/17 14:07:19;;;;;;;;;;;34.70;54.10;;;;;;5005637;28;19997;-74
2022/06/17 14:09:45;;;;;;;;;;;34.90;53.00;;;;;;5005905;28;20011;-74
2022/06/17 14:12:30;;;;;;;;;;;34.90;53.00;;;;;;5008599;28;19940;-74
2022/06/17 14:15:03;;;;;;;;;;;34.90;52.90;;;;;;5007485;28;19913;-74
2022/06/17 14:17:29;;;;;;;;;;;34.80;52.80;;;;;;5008970;28;19913;-74
2022/06/17 14:19:56;;;;;;;;;;;34.80;53.00;;;;;;5005431;28;19920;-74
2022/06/17 14:22:22;;;;;;;;;;;34.90;53.40;;;;;;5007732;28;19930;-74
2022/06/17 14:24:47;;;;;;;;;;;34.90;53.60;;;;;;5009646;28;19917;-74
2022/06/17 14:27:33;;;;;;;;;;;34.80;53.20;;;;;;5009458;28;19921;-74
2022/06/17 14:30:24;;;;;;;;;;;34.80;53.20;;;;;;5010684;28;19947;-73
2022/06/17 14:32:49;;;;;;;;;;;35.00;53.20;;;;;;5009733;28;19906;-74
2022/06/17 14:35:24;;;;;;;;;;;34.80;53.00;;;;;;5010272;28;19910;-74
2022/06/17 14:37:51;;;;;;;;;;;34.80;52.90;;;;;;5005732;28;20426;-74
2022/06/17 14:40:23;;;;;;;;;;;34.90;53.10;;;;;;5007551;28;19913;-75